sensor_id;sensor_type;location;lat;lon;timestamp;pressure;altitude;pressure_sealevel;temperature;humidity
71361;BME280;59166;48.908;1.870;2023-03-01T00:01:21;101420.50;;;-0.19;70.42
71361;BME280;59166;48.908;1.870;2023-03-01T00:06:22;101428.59;;;-0.29;72.00
71361;BME280;59166;48.908;1.870;2023-03-01T00:11:26;101420.28;;;-0.34;70.89
71361;BME280;59166;48.908;1.870;2023-03-01T00:16:28;101429.25;;;-0.35;71.27
71361;BME280;59166;48.908;1.870;2023-03-01T00:21:29;101430.88;;;-0.50;72.92
71361;BME280;59166;48.908;1.870;2023-03-01T00:26:31;101425.56;;;-0.50;72.23
71361;BME280;59166;48.908;1.870;2023-03-01T00:31:33;101428.22;;;-0.50;71.62
71361;BME280;59166;48.908;1.870;2023-03-01T00:36:35;101423.25;;;-0.45;70.28
71361;BME280;59166;48.908;1.870;2023-03-01T00:41:38;101425.25;;;-0.39;71.31
71361;BME280;59166;48.908;1.870;2023-03-01T00:46:38;101417.44;;;-0.40;70.35
71361;BME280;59166;48.908;1.870;2023-03-01T00:51:39;101419.59;;;-0.44;70.96
71361;BME280;59166;48.908;1.870;2023-03-01T00:56:41;101414.59;;;-0.47;71.62
71361;BME280;59166;48.908;1.870;2023-03-01T01:01:41;101418.25;;;-0.48;69.98
71361;BME280;59166;48.908;1.870;2023-03-01T01:06:44;101423.06;;;-0.52;71.04
71361;BME280;59166;48.908;1.870;2023-03-01T01:11:47;101424.91;;;-0.52;71.81
71361;BME280;59166;48.908;1.870;2023-03-01T01:16:48;101417.44;;;-0.49;71.40
71361;BME280;59166;48.908;1.870;2023-03-01T01:21:49;101412.31;;;-0.34;70.87
71361;BME280;59166;48.908;1.870;2023-03-01T01:26:51;101407.53;;;-0.38;70.30
71361;BME280;59166;48.908;1.870;2023-03-01T01:31:51;101398.03;;;-0.41;70.38
71361;BME280;59166;48.908;1.870;2023-03-01T01:36:53;101399.50;;;-0.55;71.55
71361;BME280;59166;48.908;1.870;2023-03-01T01:41:55;101399.66;;;-0.48;71.16
71361;BME280;59166;48.908;1.870;2023-03-01T01:46:57;101401.38;;;-0.39;70.55
71361;BME280;59166;48.908;1.870;2023-03-01T01:52:09;101391.72;;;-0.48;70.81
71361;BME280;59166;48.908;1.870;2023-03-01T01:57:15;101384.91;;;-0.59;71.84
71361;BME280;59166;48.908;1.870;2023-03-01T02:02:19;101381.75;;;-0.62;73.56
71361;BME280;59166;48.908;1.870;2023-03-01T02:07:23;101380.72;;;-0.69;74.07
71361;BME280;59166;48.908;1.870;2023-03-01T02:12:26;101383.66;;;-0.80;74.00
71361;BME280;59166;48.908;1.870;2023-03-01T02:17:27;101375.84;;;-0.82;73.38
71361;BME280;59166;48.908;1.870;2023-03-01T02:22:30;101372.22;;;-0.89;74.44
71361;BME280;59166;48.908;1.870;2023-03-01T02:27:38;101366.72;;;-0.87;73.56
71361;BME280;59166;48.908;1.870;2023-03-01T02:32:42;101366.19;;;-0.99;74.13
71361;BME280;59166;48.908;1.870;2023-03-01T02:37:44;101356.72;;;-1.02;74.32
71361;BME280;59166;48.908;1.870;2023-03-01T02:42:48;101355.41;;;-1.06;74.43
71361;BME280;59166;48.908;1.870;2023-03-01T02:47:53;101349.59;;;-1.09;74.99
71361;BME280;59166;48.908;1.870;2023-03-01T02:52:57;101342.41;;;-1.17;75.84
71361;BME280;59166;48.908;1.870;2023-03-01T02:58:02;101345.72;;;-1.23;76.82
71361;BME280;59166;48.908;1.870;2023-03-01T03:03:05;101333.38;;;-1.32;78.27
71361;BME280;59166;48.908;1.870;2023-03-01T03:08:06;101341.00;;;-1.37;77.50
71361;BME280;59166;48.908;1.870;2023-03-01T03:13:08;101336.69;;;-1.38;79.01
71361;BME280;59166;48.908;1.870;2023-03-01T03:18:15;101347.22;;;-1.46;78.87
71361;BME280;59166;48.908;1.870;2023-03-01T03:23:15;101348.22;;;-1.47;78.72
71361;BME280;59166;48.908;1.870;2023-03-01T03:28:16;101338.09;;;-1.52;78.52
71361;BME280;59166;48.908;1.870;2023-03-01T03:33:18;101327.16;;;-1.57;78.49
71361;BME280;59166;48.908;1.870;2023-03-01T03:38:19;101323.47;;;-1.64;78.42
71361;BME280;59166;48.908;1.870;2023-03-01T03:43:21;101317.00;;;-1.61;77.87
71361;BME280;59166;48.908;1.870;2023-03-01T03:48:25;101317.66;;;-1.67;78.20
71361;BME280;59166;48.908;1.870;2023-03-01T03:53:27;101312.34;;;-1.67;78.04
71361;BME280;59166;48.908;1.870;2023-03-01T03:58:28;101311.00;;;-1.71;78.50
71361;BME280;59166;48.908;1.870;2023-03-01T04:03:31;101301.22;;;-1.71;78.41
71361;BME280;59166;48.908;1.870;2023-03-01T04:08:32;101305.03;;;-1.73;78.53
71361;BME280;59166;48.908;1.870;2023-03-01T04:13:32;101306.16;;;-1.76;78.54
71361;BME280;59166;48.908;1.870;2023-03-01T04:18:34;101304.97;;;-1.81;79.19
71361;BME280;59166;48.908;1.870;2023-03-01T04:23:35;101305.28;;;-1.84;79.83
71361;BME280;59166;48.908;1.870;2023-03-01T04:28:37;101313.22;;;-1.84;79.97
71361;BME280;59166;48.908;1.870;2023-03-01T04:33:40;101298.28;;;-1.93;80.31
71361;BME280;59166;48.908;1.870;2023-03-01T04:38:42;101302.25;;;-1.89;80.97
71361;BME280;59166;48.908;1.870;2023-03-01T04:43:43;101298.94;;;-1.91;80.53
71361;BME280;59166;48.908;1.870;2023-03-01T04:48:46;101289.19;;;-1.91;80.38
71361;BME280;59166;48.908;1.870;2023-03-01T04:53:46;101287.00;;;-1.95;81.00
71361;BME280;59166;48.908;1.870;2023-03-01T04:58:47;101281.38;;;-1.92;80.74
71361;BME280;59166;48.908;1.870;2023-03-01T05:03:50;101284.22;;;-1.94;80.95
71361;BME280;59166;48.908;1.870;2023-03-01T05:08:51;101267.50;;;-1.94;80.63
71361;BME280;59166;48.908;1.870;2023-03-01T05:13:52;101271.13;;;-1.95;80.77
71361;BME280;59166;48.908;1.870;2023-03-01T05:18:54;101271.53;;;-2.08;81.43
71361;BME280;59166;48.908;1.870;2023-03-01T05:23:54;101281.28;;;-2.09;81.42
71361;BME280;59166;48.908;1.870;2023-03-01T05:28:55;101280.84;;;-2.22;82.79
71361;BME280;59166;48.908;1.870;2023-03-01T05:33:57;101287.97;;;-2.22;82.79
71361;BME280;59166;48.908;1.870;2023-03-01T05:38:58;101281.84;;;-2.23;82.78
71361;BME280;59166;48.908;1.870;2023-03-01T05:43:59;101276.72;;;-2.24;82.47
71361;BME280;59166;48.908;1.870;2023-03-01T05:49:00;101277.38;;;-2.22;82.61
71361;BME280;59166;48.908;1.870;2023-03-01T05:54:01;101270.06;;;-2.28;82.83
71361;BME280;59166;48.908;1.870;2023-03-01T05:59:03;101274.50;;;-2.29;83.40
71361;BME280;59166;48.908;1.870;2023-03-01T06:04:05;101276.78;;;-2.34;83.90
71361;BME280;59166;48.908;1.870;2023-03-01T06:09:06;101267.88;;;-2.33;83.86
71361;BME280;59166;48.908;1.870;2023-03-01T06:14:08;101267.19;;;-2.35;83.96
71361;BME280;59166;48.908;1.870;2023-03-01T06:19:10;101250.72;;;-2.46;84.71
71361;BME280;59166;48.908;1.870;2023-03-01T06:24:11;101246.13;;;-2.44;84.67
71361;BME280;59166;48.908;1.870;2023-03-01T06:29:11;101242.69;;;-2.37;85.16
71361;BME280;59166;48.908;1.870;2023-03-01T06:34:14;101243.00;;;-2.40;85.59
71361;BME280;59166;48.908;1.870;2023-03-01T06:39:14;101237.09;;;-2.34;85.74
71361;BME280;59166;48.908;1.870;2023-03-01T06:44:15;101242.69;;;-2.37;85.71
71361;BME280;59166;48.908;1.870;2023-03-01T06:49:17;101237.94;;;-2.33;85.89
71361;BME280;59166;48.908;1.870;2023-03-01T06:54:17;101235.28;;;-2.33;86.12
71361;BME280;59166;48.908;1.870;2023-03-01T06:59:19;101231.25;;;-2.20;85.93
71361;BME280;59166;48.908;1.870;2023-03-01T07:04:21;101230.34;;;-2.11;85.40
71361;BME280;59166;48.908;1.870;2023-03-01T07:09:21;101226.03;;;-2.04;85.45
71361;BME280;59166;48.908;1.870;2023-03-01T07:14:22;101216.22;;;-1.93;85.53
71361;BME280;59166;48.908;1.870;2023-03-01T07:19:24;101225.16;;;-1.86;84.35
71361;BME280;59166;48.908;1.870;2023-03-01T07:24:25;101226.34;;;-1.81;84.92
71361;BME280;59166;48.908;1.870;2023-03-01T07:29:26;101236.19;;;-1.65;84.41
71361;BME280;59166;48.908;1.870;2023-03-01T07:34:28;101228.34;;;-1.41;83.74
71361;BME280;59166;48.908;1.870;2023-03-01T07:39:29;101231.03;;;-1.25;83.49
71361;BME280;59166;48.908;1.870;2023-03-01T07:44:29;101227.28;;;-1.14;82.34
71361;BME280;59166;48.908;1.870;2023-03-01T07:49:31;101215.19;;;-1.01;81.73
71361;BME280;59166;48.908;1.870;2023-03-01T07:54:32;101222.88;;;-0.65;80.10
71361;BME280;59166;48.908;1.870;2023-03-01T07:59:33;101227.66;;;-0.45;80.12
71361;BME280;59166;48.908;1.870;2023-03-01T08:04:35;101232.50;;;-0.32;79.41
71361;BME280;59166;48.908;1.870;2023-03-01T08:09:35;101232.81;;;-0.27;79.55
71361;BME280;59166;48.908;1.870;2023-03-01T08:14:36;101226.81;;;-0.13;79.30
71361;BME280;59166;48.908;1.870;2023-03-01T08:19:38;101234.91;;;0.10;77.70
71361;BME280;59166;48.908;1.870;2023-03-01T08:24:39;101238.97;;;0.37;76.02
71361;BME280;59166;48.908;1.870;2023-03-01T08:29:40;101243.84;;;0.72;74.20
71361;BME280;59166;48.908;1.870;2023-03-01T08:34:42;101223.88;;;1.07;74.08
71361;BME280;59166;48.908;1.870;2023-03-01T08:39:42;101222.28;;;1.21;73.00
71361;BME280;59166;48.908;1.870;2023-03-01T08:44:43;101222.19;;;1.29;72.19
71361;BME280;59166;48.908;1.870;2023-03-01T08:49:45;101215.34;;;1.72;71.16
71361;BME280;59166;48.908;1.870;2023-03-01T08:54:47;101205.59;;;2.01;68.84
71361;BME280;59166;48.908;1.870;2023-03-01T08:59:47;101192.88;;;2.33;67.53
71361;BME280;59166;48.908;1.870;2023-03-01T09:04:49;101185.63;;;2.56;67.47
71361;BME280;59166;48.908;1.870;2023-03-01T09:09:50;101178.34;;;2.50;67.97
71361;BME280;59166;48.908;1.870;2023-03-01T09:14:50;101168.47;;;2.80;67.64
71361;BME280;59166;48.908;1.870;2023-03-01T09:19:52;101178.88;;;2.96;65.30
71361;BME280;59166;48.908;1.870;2023-03-01T09:24:53;101157.59;;;3.02;65.34
71361;BME280;59166;48.908;1.870;2023-03-01T09:29:54;101154.56;;;3.27;64.21
71361;BME280;59166;48.908;1.870;2023-03-01T09:34:56;101165.53;;;3.17;62.56
71361;BME280;59166;48.908;1.870;2023-03-01T09:39:56;101161.38;;;3.57;62.38
71361;BME280;59166;48.908;1.870;2023-03-01T09:44:59;101154.59;;;3.89;62.63
71361;BME280;59166;48.908;1.870;2023-03-01T09:50:06;101158.47;;;4.14;60.07
71361;BME280;59166;48.908;1.870;2023-03-01T09:55:13;101159.50;;;4.19;58.99
71361;BME280;59166;48.908;1.870;2023-03-01T10:00:21;101155.72;;;4.42;58.70
71361;BME280;59166;48.908;1.870;2023-03-01T10:05:34;101155.28;;;4.32;57.83
71361;BME280;59166;48.908;1.870;2023-03-01T10:10:38;101141.56;;;4.54;59.57
71361;BME280;59166;48.908;1.870;2023-03-01T10:15:43;101131.34;;;4.71;57.73
71361;BME280;59166;48.908;1.870;2023-03-01T10:20:50;101132.03;;;5.06;55.30
71361;BME280;59166;48.908;1.870;2023-03-01T10:26:02;101121.94;;;5.08;55.06
71361;BME280;59166;48.908;1.870;2023-03-01T10:31:05;101129.38;;;5.12;54.91
71361;BME280;59166;48.908;1.870;2023-03-01T10:36:13;101130.78;;;5.02;53.88
71361;BME280;59166;48.908;1.870;2023-03-01T10:41:13;101129.09;;;4.81;55.58
71361;BME280;59166;48.908;1.870;2023-03-01T10:46:25;101117.38;;;4.82;54.18
71361;BME280;59166;48.908;1.870;2023-03-01T10:51:27;101125.84;;;4.92;54.78
71361;BME280;59166;48.908;1.870;2023-03-01T10:56:27;101119.66;;;5.11;54.11
71361;BME280;59166;48.908;1.870;2023-03-01T11:01:30;101116.34;;;4.96;55.38
71361;BME280;59166;48.908;1.870;2023-03-01T11:06:34;101106.88;;;5.27;52.23
71361;BME280;59166;48.908;1.870;2023-03-01T11:11:35;101105.66;;;5.55;54.07
71361;BME280;59166;48.908;1.870;2023-03-01T11:16:38;101101.94;;;5.63;52.22
71361;BME280;59166;48.908;1.870;2023-03-01T11:21:44;101089.16;;;5.58;52.00
71361;BME280;59166;48.908;1.870;2023-03-01T11:26:51;101084.31;;;6.00;52.96
71361;BME280;59166;48.908;1.870;2023-03-01T11:31:56;101075.78;;;6.22;51.19
71361;BME280;59166;48.908;1.870;2023-03-01T11:37:03;101076.97;;;6.33;50.79
71361;BME280;59166;48.908;1.870;2023-03-01T11:42:12;101062.78;;;6.64;51.16
71361;BME280;59166;48.908;1.870;2023-03-01T11:47:29;101066.59;;;6.81;48.41
71361;BME280;59166;48.908;1.870;2023-03-01T11:52:45;101061.06;;;6.76;48.08
71361;BME280;59166;48.908;1.870;2023-03-01T11:58:00;101052.16;;;6.75;49.48
71361;BME280;59166;48.908;1.870;2023-03-01T12:03:20;101042.88;;;6.78;49.12
71361;BME280;59166;48.908;1.870;2023-03-01T12:08:31;101043.66;;;6.85;49.11
71361;BME280;59166;48.908;1.870;2023-03-01T12:25:11;101007.13;;;7.02;49.69
71361;BME280;59166;48.908;1.870;2023-03-01T12:30:24;101010.25;;;7.24;50.32
71361;BME280;59166;48.908;1.870;2023-03-01T12:35:44;101002.72;;;7.33;48.82
71361;BME280;59166;48.908;1.870;2023-03-01T12:46:44;100990.63;;;7.23;48.39
71361;BME280;59166;48.908;1.870;2023-03-01T12:51:54;100982.56;;;6.99;48.73
71361;BME280;59166;48.908;1.870;2023-03-01T12:57:02;100965.16;;;7.26;49.23
71361;BME280;59166;48.908;1.870;2023-03-01T13:02:14;100960.34;;;7.35;48.37
71361;BME280;59166;48.908;1.870;2023-03-01T13:07:24;100940.84;;;7.57;49.70
71361;BME280;59166;48.908;1.870;2023-03-01T13:12:48;100928.44;;;7.74;48.55
71361;BME280;59166;48.908;1.870;2023-03-01T13:17:51;100921.84;;;7.89;46.77
71361;BME280;59166;48.908;1.870;2023-03-01T13:23:03;100904.31;;;7.98;46.65
71361;BME280;59166;48.908;1.870;2023-03-01T13:28:40;100903.84;;;7.89;48.28
71361;BME280;59166;48.908;1.870;2023-03-01T13:33:43;100890.94;;;7.79;47.22
71361;BME280;59166;48.908;1.870;2023-03-01T13:38:47;100886.69;;;7.72;46.88
71361;BME280;59166;48.908;1.870;2023-03-01T13:43:50;100876.66;;;7.79;47.30
71361;BME280;59166;48.908;1.870;2023-03-01T13:48:53;100863.41;;;8.07;48.86
71361;BME280;59166;48.908;1.870;2023-03-01T13:53:56;100870.09;;;8.16;47.25
71361;BME280;59166;48.908;1.870;2023-03-01T13:59:02;100865.31;;;8.18;46.98
71361;BME280;59166;48.908;1.870;2023-03-01T14:04:20;100859.84;;;8.37;46.76
71361;BME280;59166;48.908;1.870;2023-03-01T14:09:23;100840.72;;;8.15;47.26
71361;BME280;59166;48.908;1.870;2023-03-01T14:14:46;100848.84;;;8.26;47.94
71361;BME280;59166;48.908;1.870;2023-03-01T14:19:54;100845.75;;;8.11;47.01
71361;BME280;59166;48.908;1.870;2023-03-01T14:24:58;100842.22;;;8.11;48.35
71361;BME280;59166;48.908;1.870;2023-03-01T14:30:04;100832.50;;;7.98;47.10
71361;BME280;59166;48.908;1.870;2023-03-01T14:35:20;100831.97;;;7.78;47.39
71361;BME280;59166;48.908;1.870;2023-03-01T14:40:25;100831.63;;;7.74;48.22
71361;BME280;59166;48.908;1.870;2023-03-01T14:45:29;100826.88;;;7.88;49.21
71361;BME280;59166;48.908;1.870;2023-03-01T14:50:32;100825.56;;;7.91;47.46
71361;BME280;59166;48.908;1.870;2023-03-01T14:55:35;100823.03;;;7.96;47.42
71361;BME280;59166;48.908;1.870;2023-03-01T15:00:39;100817.09;;;8.05;48.39
71361;BME280;59166;48.908;1.870;2023-03-01T15:05:44;100817.75;;;8.01;48.00
71361;BME280;59166;48.908;1.870;2023-03-01T15:10:57;100822.22;;;7.95;49.17
71361;BME280;59166;48.908;1.870;2023-03-01T15:16:05;100819.38;;;7.90;49.04
71361;BME280;59166;48.908;1.870;2023-03-01T15:21:08;100817.59;;;7.84;49.23
71361;BME280;59166;48.908;1.870;2023-03-01T15:26:22;100810.97;;;7.98;49.16
71361;BME280;59166;48.908;1.870;2023-03-01T15:31:26;100802.75;;;7.82;49.56
71361;BME280;59166;48.908;1.870;2023-03-01T15:36:35;100805.09;;;7.78;48.80
71361;BME280;59166;48.908;1.870;2023-03-01T15:41:47;100781.31;;;7.63;49.08
71361;BME280;59166;48.908;1.870;2023-03-01T15:46:49;100776.16;;;7.62;48.22
71361;BME280;59166;48.908;1.870;2023-03-01T15:51:50;100787.22;;;7.42;52.30
71361;BME280;59166;48.908;1.870;2023-03-01T15:56:52;100773.41;;;7.39;49.78
71361;BME280;59166;48.908;1.870;2023-03-01T16:01:54;100768.91;;;7.33;49.61
71361;BME280;59166;48.908;1.870;2023-03-01T16:06:54;100765.91;;;7.11;49.25
71361;BME280;59166;48.908;1.870;2023-03-01T16:11:55;100753.56;;;6.92;50.85
71361;BME280;59166;48.908;1.870;2023-03-01T16:16:57;100757.38;;;6.84;51.27
71361;BME280;59166;48.908;1.870;2023-03-01T16:21:58;100757.81;;;6.81;51.10
71361;BME280;59166;48.908;1.870;2023-03-01T16:26:58;100754.38;;;6.74;50.94
71361;BME280;59166;48.908;1.870;2023-03-01T16:32:01;100751.31;;;6.70;50.77
71361;BME280;59166;48.908;1.870;2023-03-01T16:37:02;100762.81;;;6.59;51.07
71361;BME280;59166;48.908;1.870;2023-03-01T16:42:02;100777.69;;;6.55;50.74
71361;BME280;59166;48.908;1.870;2023-03-01T16:47:04;100771.03;;;6.40;51.63
71361;BME280;59166;48.908;1.870;2023-03-01T16:52:05;100779.41;;;6.25;52.74
71361;BME280;59166;48.908;1.870;2023-03-01T16:57:06;100771.34;;;6.07;52.07
71361;BME280;59166;48.908;1.870;2023-03-01T17:02:10;100779.88;;;5.97;52.44
71361;BME280;59166;48.908;1.870;2023-03-01T17:07:11;100777.72;;;5.81;54.12
71361;BME280;59166;48.908;1.870;2023-03-01T17:12:12;100780.84;;;5.78;52.78
71361;BME280;59166;48.908;1.870;2023-03-01T17:17:14;100780.94;;;5.65;53.21
71361;BME280;59166;48.908;1.870;2023-03-01T17:22:15;100779.56;;;5.56;54.84
71361;BME280;59166;48.908;1.870;2023-03-01T17:27:15;100776.75;;;5.38;54.71
71361;BME280;59166;48.908;1.870;2023-03-01T17:32:18;100780.34;;;5.25;55.03
71361;BME280;59166;48.908;1.870;2023-03-01T17:37:18;100781.63;;;5.16;55.82
71361;BME280;59166;48.908;1.870;2023-03-01T17:42:19;100788.72;;;4.91;55.54
71361;BME280;59166;48.908;1.870;2023-03-01T17:47:21;100801.72;;;4.81;56.42
71361;BME280;59166;48.908;1.870;2023-03-01T17:52:22;100799.69;;;4.76;56.16
71361;BME280;59166;48.908;1.870;2023-03-01T17:57:22;100798.28;;;4.67;56.89
71361;BME280;59166;48.908;1.870;2023-03-01T18:02:24;100805.09;;;4.50;57.66
71361;BME280;59166;48.908;1.870;2023-03-01T18:07:25;100813.34;;;4.42;57.36
71361;BME280;59166;48.908;1.870;2023-03-01T18:12:26;100802.66;;;4.22;58.79
71361;BME280;59166;48.908;1.870;2023-03-01T18:17:28;100819.94;;;4.00;58.26
71361;BME280;59166;48.908;1.870;2023-03-01T18:22:29;100823.22;;;3.95;59.56
71361;BME280;59166;48.908;1.870;2023-03-01T18:27:30;100823.00;;;3.84;59.77
71361;BME280;59166;48.908;1.870;2023-03-01T18:32:32;100822.59;;;3.74;59.69
71361;BME280;59166;48.908;1.870;2023-03-01T18:37:33;100820.69;;;3.54;60.48
71361;BME280;59166;48.908;1.870;2023-03-01T18:42:33;100820.06;;;3.46;61.39
71361;BME280;59166;48.908;1.870;2023-03-01T18:47:35;100824.56;;;3.45;60.97
71361;BME280;59166;48.908;1.870;2023-03-01T18:52:36;100836.88;;;3.33;61.34
71361;BME280;59166;48.908;1.870;2023-03-01T18:57:36;100837.25;;;3.30;61.75
71361;BME280;59166;48.908;1.870;2023-03-01T19:02:38;100835.13;;;3.12;61.78
71361;BME280;59166;48.908;1.870;2023-03-01T19:07:39;100834.69;;;3.02;62.07
71361;BME280;59166;48.908;1.870;2023-03-01T19:12:40;100829.47;;;2.88;62.79
71361;BME280;59166;48.908;1.870;2023-03-01T19:17:42;100828.97;;;2.71;63.63
71361;BME280;59166;48.908;1.870;2023-03-01T19:22:43;100835.53;;;2.69;63.21
71361;BME280;59166;48.908;1.870;2023-03-01T19:27:43;100828.88;;;2.58;63.88
71361;BME280;59166;48.908;1.870;2023-03-01T19:32:45;100835.09;;;2.37;65.32
71361;BME280;59166;48.908;1.870;2023-03-01T19:37:46;100837.31;;;2.34;65.69
71361;BME280;59166;48.908;1.870;2023-03-01T19:42:46;100833.94;;;2.19;65.94
71361;BME280;59166;48.908;1.870;2023-03-01T19:47:48;100833.44;;;2.08;66.57
71361;BME280;59166;48.908;1.870;2023-03-01T19:52:49;100830.13;;;2.06;66.89
71361;BME280;59166;48.908;1.870;2023-03-01T19:57:50;100827.63;;;1.98;67.67
71361;BME280;59166;48.908;1.870;2023-03-01T20:02:52;100828.13;;;1.87;68.26
71361;BME280;59166;48.908;1.870;2023-03-01T20:07:53;100833.97;;;1.76;69.52
71361;BME280;59166;48.908;1.870;2023-03-01T20:12:54;100831.78;;;1.65;70.76
71361;BME280;59166;48.908;1.870;2023-03-01T20:17:56;100825.22;;;1.61;71.28
71361;BME280;59166;48.908;1.870;2023-03-01T20:22:56;100822.66;;;1.53;71.51
71361;BME280;59166;48.908;1.870;2023-03-01T20:27:57;100818.66;;;1.42;71.75
71361;BME280;59166;48.908;1.870;2023-03-01T20:32:59;100821.25;;;1.36;72.33
71361;BME280;59166;48.908;1.870;2023-03-01T20:38:00;100815.69;;;1.31;73.17
71361;BME280;59166;48.908;1.870;2023-03-01T20:43:01;100806.03;;;1.30;72.92
71361;BME280;59166;48.908;1.870;2023-03-01T20:48:03;100805.13;;;1.23;73.39
71361;BME280;59166;48.908;1.870;2023-03-01T20:53:04;100800.56;;;1.17;73.16
71361;BME280;59166;48.908;1.870;2023-03-01T20:58:05;100812.03;;;1.17;72.74
71361;BME280;59166;48.908;1.870;2023-03-01T21:03:07;100802.41;;;1.16;73.49
71361;BME280;59166;48.908;1.870;2023-03-01T21:08:07;100801.94;;;1.13;73.20
71361;BME280;59166;48.908;1.870;2023-03-01T21:13:08;100801.03;;;1.05;74.17
71361;BME280;59166;48.908;1.870;2023-03-01T21:18:10;100796.91;;;1.03;73.96
71361;BME280;59166;48.908;1.870;2023-03-01T21:23:11;100800.69;;;0.94;74.67
71361;BME280;59166;48.908;1.870;2023-03-01T21:28:11;100804.28;;;0.86;75.32
71361;BME280;59166;48.908;1.870;2023-03-01T21:33:13;100807.16;;;0.70;75.89
71361;BME280;59166;48.908;1.870;2023-03-01T21:38:14;100805.84;;;0.66;76.02
71361;BME280;59166;48.908;1.870;2023-03-01T21:43:14;100796.06;;;0.67;75.10
71361;BME280;59166;48.908;1.870;2023-03-01T21:48:16;100796.22;;;0.65;75.36
71361;BME280;59166;48.908;1.870;2023-03-01T21:53:17;100788.16;;;0.73;75.11
71361;BME280;59166;48.908;1.870;2023-03-01T21:58:18;100793.47;;;0.73;74.51
71361;BME280;59166;48.908;1.870;2023-03-01T22:03:20;100784.75;;;0.79;73.71
71361;BME280;59166;48.908;1.870;2023-03-01T22:08:21;100785.59;;;0.80;74.59
71361;BME280;59166;48.908;1.870;2023-03-01T22:13:21;100778.25;;;0.82;73.52
71361;BME280;59166;48.908;1.870;2023-03-01T22:18:23;100776.66;;;0.87;74.44
71361;BME280;59166;48.908;1.870;2023-03-01T22:23:24;100773.91;;;0.81;74.56
71361;BME280;59166;48.908;1.870;2023-03-01T22:28:25;100773.22;;;0.72;74.30
71361;BME280;59166;48.908;1.870;2023-03-01T22:33:27;100765.31;;;0.64;75.47
71361;BME280;59166;48.908;1.870;2023-03-01T22:38:27;100763.03;;;0.61;75.38
71361;BME280;59166;48.908;1.870;2023-03-01T22:43:29;100767.81;;;0.66;74.91
71361;BME280;59166;48.908;1.870;2023-03-01T22:48:31;100767.97;;;0.79;75.29
71361;BME280;59166;48.908;1.870;2023-03-01T22:53:32;100764.41;;;0.86;73.86
71361;BME280;59166;48.908;1.870;2023-03-01T22:58:33;100763.91;;;0.97;73.13
71361;BME280;59166;48.908;1.870;2023-03-01T23:03:36;100759.59;;;0.96;72.64
71361;BME280;59166;48.908;1.870;2023-03-01T23:08:36;100758.56;;;0.97;73.16
71361;BME280;59166;48.908;1.870;2023-03-01T23:13:37;100765.78;;;1.18;71.36
71361;BME280;59166;48.908;1.870;2023-03-01T23:18:39;100760.44;;;1.18;72.18
71361;BME280;59166;48.908;1.870;2023-03-01T23:23:41;100760.06;;;1.21;71.91
71361;BME280;59166;48.908;1.870;2023-03-01T23:28:42;100749.81;;;1.18;72.56
71361;BME280;59166;48.908;1.870;2023-03-01T23:33:45;100758.25;;;1.22;71.27
71361;BME280;59166;48.908;1.870;2023-03-01T23:38:46;100749.50;;;1.28;71.25
71361;BME280;59166;48.908;1.870;2023-03-01T23:43:48;100751.34;;;1.27;71.22
71361;BME280;59166;48.908;1.870;2023-03-01T23:48:52;100746.97;;;1.20;71.33
71361;BME280;59166;48.908;1.870;2023-03-01T23:53:54;100752.91;;;1.22;71.29
71361;BME280;59166;48.908;1.870;2023-03-01T23:58:56;100749.75;;;1.11;71.93
